sensor_id;sensor_type;location;lat;lon;timestamp;P1;durP1;ratioP1;P2;durP2;ratioP2
12792;SDS011;6460;42.684;23.260;2022-07-30T00:00:05;7.60;;;6.93;;
12792;SDS011;6460;42.684;23.260;2022-07-30T00:02:35;7.57;;;6.97;;
12792;SDS011;6460;42.684;23.260;2022-07-30T00:05:02;7.33;;;6.63;;
12792;SDS011;6460;42.684;23.260;2022-07-30T00:07:30;7.10;;;6.40;;
12792;SDS011;6460;42.684;23.260;2022-07-30T00:09:59;6.77;;;6.17;;
12792;SDS011;6460;42.684;23.260;2022-07-30T00:12:28;6.63;;;6.10;;
12792;SDS011;6460;42.684;23.260;2022-07-30T00:14:56;6.83;;;6.23;;
12792;SDS011;6460;42.684;23.260;2022-07-30T00:17:23;7.33;;;6.83;;
12792;SDS011;6460;42.684;23.260;2022-07-30T00:19:50;8.30;;;6.77;;
12792;SDS011;6460;42.684;23.260;2022-07-30T00:22:17;7.30;;;6.53;;
12792;SDS011;6460;42.684;23.260;2022-07-30T00:24:44;7.57;;;6.80;;
12792;SDS011;6460;42.684;23.260;2022-07-30T00:27:11;7.20;;;6.60;;
12792;SDS011;6460;42.684;23.260;2022-07-30T00:29:40;6.90;;;6.30;;
12792;SDS011;6460;42.684;23.260;2022-07-30T00:32:08;7.50;;;6.70;;
12792;SDS011;6460;42.684;23.260;2022-07-30T00:34:35;7.77;;;6.70;;
12792;SDS011;6460;42.684;23.260;2022-07-30T00:37:02;7.43;;;6.73;;
12792;SDS011;6460;42.684;23.260;2022-07-30T00:39:29;6.63;;;6.07;;
12792;SDS011;6460;42.684;23.260;2022-07-30T00:41:57;7.23;;;6.53;;
12792;SDS011;6460;42.684;23.260;2022-07-30T00:44:26;7.07;;;6.37;;
12792;SDS011;6460;42.684;23.260;2022-07-30T00:46:56;6.57;;;6.00;;
12792;SDS011;6460;42.684;23.260;2022-07-30T00:49:23;6.90;;;6.27;;
12792;SDS011;6460;42.684;23.260;2022-07-30T00:51:51;6.40;;;5.80;;
12792;SDS011;6460;42.684;23.260;2022-07-30T00:54:18;6.90;;;6.20;;
12792;SDS011;6460;42.684;23.260;2022-07-30T00:56:46;5.73;;;5.23;;
12792;SDS011;6460;42.684;23.260;2022-07-30T00:59:13;6.20;;;5.50;;
12792;SDS011;6460;42.684;23.260;2022-07-30T01:01:41;6.37;;;5.50;;
12792;SDS011;6460;42.684;23.260;2022-07-30T01:04:10;7.40;;;5.80;;
12792;SDS011;6460;42.684;23.260;2022-07-30T01:06:37;6.57;;;6.07;;
12792;SDS011;6460;42.684;23.260;2022-07-30T01:09:05;6.27;;;5.67;;
12792;SDS011;6460;42.684;23.260;2022-07-30T01:11:35;7.90;;;5.73;;
12792;SDS011;6460;42.684;23.260;2022-07-30T01:14:03;6.37;;;5.60;;
12792;SDS011;6460;42.684;23.260;2022-07-30T01:16:31;6.70;;;5.50;;
12792;SDS011;6460;42.684;23.260;2022-07-30T01:18:59;6.10;;;5.53;;
12792;SDS011;6460;42.684;23.260;2022-07-30T01:21:50;6.17;;;5.30;;
12792;SDS011;6460;42.684;23.260;2022-07-30T01:24:27;5.50;;;5.00;;
12792;SDS011;6460;42.684;23.260;2022-07-30T01:27:00;5.93;;;5.43;;
12792;SDS011;6460;42.684;23.260;2022-07-30T01:29:28;6.33;;;5.83;;
12792;SDS011;6460;42.684;23.260;2022-07-30T01:31:57;7.87;;;5.70;;
12792;SDS011;6460;42.684;23.260;2022-07-30T01:34:26;7.60;;;6.03;;
12792;SDS011;6460;42.684;23.260;2022-07-30T01:36:55;6.93;;;6.30;;
12792;SDS011;6460;42.684;23.260;2022-07-30T01:39:25;9.73;;;8.93;;
12792;SDS011;6460;42.684;23.260;2022-07-30T01:41:54;8.87;;;7.97;;
12792;SDS011;6460;42.684;23.260;2022-07-30T01:44:25;7.97;;;6.87;;
12792;SDS011;6460;42.684;23.260;2022-07-30T01:46:53;6.33;;;5.80;;
12792;SDS011;6460;42.684;23.260;2022-07-30T01:49:22;7.87;;;5.63;;
12792;SDS011;6460;42.684;23.260;2022-07-30T01:51:53;7.17;;;5.63;;
12792;SDS011;6460;42.684;23.260;2022-07-30T01:54:23;7.20;;;6.57;;
12792;SDS011;6460;42.684;23.260;2022-07-30T01:56:53;7.10;;;6.40;;
12792;SDS011;6460;42.684;23.260;2022-07-30T01:59:22;6.23;;;5.63;;
12792;SDS011;6460;42.684;23.260;2022-07-30T02:01:53;6.50;;;5.53;;
12792;SDS011;6460;42.684;23.260;2022-07-30T02:04:21;6.37;;;5.40;;
12792;SDS011;6460;42.684;23.260;2022-07-30T02:06:51;6.70;;;6.10;;
12792;SDS011;6460;42.684;23.260;2022-07-30T02:09:27;6.40;;;5.77;;
12792;SDS011;6460;42.684;23.260;2022-07-30T02:11:59;6.73;;;6.10;;
12792;SDS011;6460;42.684;23.260;2022-07-30T02:14:48;6.40;;;5.90;;
12792;SDS011;6460;42.684;23.260;2022-07-30T02:17:18;6.13;;;5.63;;
12792;SDS011;6460;42.684;23.260;2022-07-30T02:19:52;8.20;;;6.50;;
12792;SDS011;6460;42.684;23.260;2022-07-30T02:22:21;7.13;;;6.43;;
12792;SDS011;6460;42.684;23.260;2022-07-30T02:24:51;7.63;;;6.20;;
12792;SDS011;6460;42.684;23.260;2022-07-30T02:27:21;9.53;;;6.40;;
12792;SDS011;6460;42.684;23.260;2022-07-30T02:29:54;7.53;;;6.83;;
12792;SDS011;6460;42.684;23.260;2022-07-30T02:32:25;7.10;;;6.50;;
12792;SDS011;6460;42.684;23.260;2022-07-30T02:34:57;8.33;;;6.60;;
12792;SDS011;6460;42.684;23.260;2022-07-30T02:37:28;6.30;;;5.70;;
12792;SDS011;6460;42.684;23.260;2022-07-30T02:39:57;7.00;;;5.77;;
12792;SDS011;6460;42.684;23.260;2022-07-30T02:42:26;6.77;;;6.07;;
12792;SDS011;6460;42.684;23.260;2022-07-30T02:44:55;6.37;;;5.80;;
12792;SDS011;6460;42.684;23.260;2022-07-30T02:47:24;6.73;;;5.73;;
12792;SDS011;6460;42.684;23.260;2022-07-30T02:49:53;6.07;;;5.60;;
12792;SDS011;6460;42.684;23.260;2022-07-30T02:52:22;6.80;;;6.13;;
12792;SDS011;6460;42.684;23.260;2022-07-30T02:54:52;6.90;;;6.30;;
12792;SDS011;6460;42.684;23.260;2022-07-30T02:57:23;8.00;;;6.13;;
12792;SDS011;6460;42.684;23.260;2022-07-30T02:59:52;7.30;;;6.17;;
12792;SDS011;6460;42.684;23.260;2022-07-30T03:02:22;6.13;;;5.63;;
12792;SDS011;6460;42.684;23.260;2022-07-30T03:04:50;6.90;;;6.20;;
12792;SDS011;6460;42.684;23.260;2022-07-30T03:07:19;6.73;;;6.23;;
12792;SDS011;6460;42.684;23.260;2022-07-30T03:09:48;6.90;;;5.80;;
12792;SDS011;6460;42.684;23.260;2022-07-30T03:12:18;10.10;;;6.93;;
12792;SDS011;6460;42.684;23.260;2022-07-30T03:14:47;8.80;;;5.93;;
12792;SDS011;6460;42.684;23.260;2022-07-30T03:17:14;7.13;;;5.80;;
12792;SDS011;6460;42.684;23.260;2022-07-30T03:19:44;7.10;;;6.20;;
12792;SDS011;6460;42.684;23.260;2022-07-30T03:22:14;6.63;;;6.03;;
12792;SDS011;6460;42.684;23.260;2022-07-30T03:24:44;10.73;;;6.47;;
12792;SDS011;6460;42.684;23.260;2022-07-30T03:27:12;8.30;;;6.43;;
12792;SDS011;6460;42.684;23.260;2022-07-30T03:29:41;7.37;;;6.33;;
12792;SDS011;6460;42.684;23.260;2022-07-30T03:32:11;8.70;;;6.50;;
12792;SDS011;6460;42.684;23.260;2022-07-30T03:34:39;8.20;;;6.40;;
12792;SDS011;6460;42.684;23.260;2022-07-30T03:37:09;7.13;;;6.47;;
12792;SDS011;6460;42.684;23.260;2022-07-30T03:39:37;6.93;;;6.33;;
12792;SDS011;6460;42.684;23.260;2022-07-30T03:42:06;7.80;;;6.57;;
12792;SDS011;6460;42.684;23.260;2022-07-30T03:44:34;7.70;;;6.50;;
12792;SDS011;6460;42.684;23.260;2022-07-30T03:47:03;7.37;;;6.40;;
12792;SDS011;6460;42.684;23.260;2022-07-30T03:49:32;7.37;;;6.40;;
12792;SDS011;6460;42.684;23.260;2022-07-30T03:52:00;7.40;;;6.50;;
12792;SDS011;6460;42.684;23.260;2022-07-30T03:54:31;6.47;;;5.77;;
12792;SDS011;6460;42.684;23.260;2022-07-30T03:56:58;10.70;;;7.00;;
12792;SDS011;6460;42.684;23.260;2022-07-30T03:59:26;18.90;;;9.20;;
12792;SDS011;6460;42.684;23.260;2022-07-30T04:01:53;13.97;;;8.20;;
12792;SDS011;6460;42.684;23.260;2022-07-30T04:04:25;24.17;;;7.73;;
12792;SDS011;6460;42.684;23.260;2022-07-30T04:06:52;17.03;;;7.00;;
12792;SDS011;6460;42.684;23.260;2022-07-30T04:09:19;16.50;;;7.17;;
12792;SDS011;6460;42.684;23.260;2022-07-30T04:11:48;12.30;;;7.10;;
12792;SDS011;6460;42.684;23.260;2022-07-30T04:14:16;12.00;;;7.00;;
12792;SDS011;6460;42.684;23.260;2022-07-30T04:16:43;20.40;;;7.80;;
12792;SDS011;6460;42.684;23.260;2022-07-30T04:19:15;14.70;;;7.93;;
12792;SDS011;6460;42.684;23.260;2022-07-30T04:21:47;12.90;;;7.33;;
12792;SDS011;6460;42.684;23.260;2022-07-30T04:24:16;17.97;;;7.30;;
12792;SDS011;6460;42.684;23.260;2022-07-30T04:26:45;13.40;;;7.67;;
12792;SDS011;6460;42.684;23.260;2022-07-30T04:29:15;8.90;;;7.67;;
12792;SDS011;6460;42.684;23.260;2022-07-30T04:31:43;9.27;;;6.87;;
12792;SDS011;6460;42.684;23.260;2022-07-30T04:34:11;8.13;;;6.50;;
12792;SDS011;6460;42.684;23.260;2022-07-30T04:36:39;8.87;;;6.63;;
12792;SDS011;6460;42.684;23.260;2022-07-30T04:39:08;7.97;;;6.57;;
12792;SDS011;6460;42.684;23.260;2022-07-30T04:41:36;6.73;;;6.13;;
12792;SDS011;6460;42.684;23.260;2022-07-30T04:44:05;7.57;;;6.07;;
12792;SDS011;6460;42.684;23.260;2022-07-30T04:46:32;7.27;;;6.57;;
12792;SDS011;6460;42.684;23.260;2022-07-30T04:48:59;8.53;;;5.93;;
12792;SDS011;6460;42.684;23.260;2022-07-30T04:51:27;8.43;;;6.23;;
12792;SDS011;6460;42.684;23.260;2022-07-30T04:53:58;7.27;;;6.33;;
12792;SDS011;6460;42.684;23.260;2022-07-30T04:56:27;6.27;;;5.67;;
12792;SDS011;6460;42.684;23.260;2022-07-30T04:58:56;7.27;;;6.53;;
12792;SDS011;6460;42.684;23.260;2022-07-30T05:01:26;7.13;;;6.30;;
12792;SDS011;6460;42.684;23.260;2022-07-30T05:03:59;7.70;;;6.03;;
12792;SDS011;6460;42.684;23.260;2022-07-30T05:06:27;6.60;;;6.00;;
12792;SDS011;6460;42.684;23.260;2022-07-30T05:08:56;6.77;;;6.07;;
12792;SDS011;6460;42.684;23.260;2022-07-30T05:11:23;7.97;;;6.60;;
12792;SDS011;6460;42.684;23.260;2022-07-30T05:13:50;6.53;;;5.90;;
12792;SDS011;6460;42.684;23.260;2022-07-30T05:16:18;7.03;;;5.70;;
12792;SDS011;6460;42.684;23.260;2022-07-30T05:18:47;6.70;;;5.80;;
12792;SDS011;6460;42.684;23.260;2022-07-30T05:21:14;6.90;;;6.30;;
12792;SDS011;6460;42.684;23.260;2022-07-30T05:23:41;7.07;;;6.37;;
12792;SDS011;6460;42.684;23.260;2022-07-30T05:26:08;6.60;;;6.00;;
12792;SDS011;6460;42.684;23.260;2022-07-30T05:28:36;8.20;;;6.33;;
12792;SDS011;6460;42.684;23.260;2022-07-30T05:31:03;8.53;;;5.83;;
12792;SDS011;6460;42.684;23.260;2022-07-30T05:33:30;7.67;;;5.90;;
12792;SDS011;6460;42.684;23.260;2022-07-30T05:35:59;8.67;;;5.70;;
12792;SDS011;6460;42.684;23.260;2022-07-30T05:38:26;6.90;;;6.20;;
12792;SDS011;6460;42.684;23.260;2022-07-30T05:40:53;6.53;;;6.03;;
12792;SDS011;6460;42.684;23.260;2022-07-30T05:43:20;7.63;;;6.00;;
12792;SDS011;6460;42.684;23.260;2022-07-30T05:45:48;6.73;;;6.13;;
12792;SDS011;6460;42.684;23.260;2022-07-30T05:48:15;6.33;;;5.73;;
12792;SDS011;6460;42.684;23.260;2022-07-30T05:50:42;7.30;;;6.03;;
12792;SDS011;6460;42.684;23.260;2022-07-30T05:53:11;8.50;;;6.17;;
12792;SDS011;6460;42.684;23.260;2022-07-30T05:55:38;6.93;;;6.20;;
12792;SDS011;6460;42.684;23.260;2022-07-30T05:58:05;8.93;;;6.73;;
12792;SDS011;6460;42.684;23.260;2022-07-30T06:00:32;7.97;;;6.80;;
12792;SDS011;6460;42.684;23.260;2022-07-30T06:03:00;7.53;;;6.77;;
12792;SDS011;6460;42.684;23.260;2022-07-30T06:05:27;7.87;;;6.60;;
12792;SDS011;6460;42.684;23.260;2022-07-30T06:07:56;9.43;;;7.07;;
12792;SDS011;6460;42.684;23.260;2022-07-30T06:10:26;7.40;;;6.37;;
12792;SDS011;6460;42.684;23.260;2022-07-30T06:12:53;8.07;;;6.77;;
12792;SDS011;6460;42.684;23.260;2022-07-30T06:15:20;8.30;;;7.00;;
12792;SDS011;6460;42.684;23.260;2022-07-30T06:17:48;8.43;;;7.00;;
12792;SDS011;6460;42.684;23.260;2022-07-30T06:20:16;8.43;;;7.20;;
12792;SDS011;6460;42.684;23.260;2022-07-30T06:22:44;7.60;;;6.87;;
12792;SDS011;6460;42.684;23.260;2022-07-30T06:25:11;9.27;;;7.33;;
12792;SDS011;6460;42.684;23.260;2022-07-30T06:27:40;9.00;;;7.00;;
12792;SDS011;6460;42.684;23.260;2022-07-30T06:30:08;7.63;;;6.63;;
12792;SDS011;6460;42.684;23.260;2022-07-30T06:32:36;7.60;;;6.83;;
12792;SDS011;6460;42.684;23.260;2022-07-30T06:35:03;7.43;;;6.53;;
12792;SDS011;6460;42.684;23.260;2022-07-30T06:37:31;8.53;;;6.80;;
12792;SDS011;6460;42.684;23.260;2022-07-30T06:39:58;6.90;;;6.20;;
12792;SDS011;6460;42.684;23.260;2022-07-30T06:42:25;7.77;;;7.07;;
12792;SDS011;6460;42.684;23.260;2022-07-30T06:44:54;7.40;;;6.70;;
12792;SDS011;6460;42.684;23.260;2022-07-30T06:47:21;8.30;;;6.53;;
12792;SDS011;6460;42.684;23.260;2022-07-30T06:49:53;9.13;;;6.33;;
12792;SDS011;6460;42.684;23.260;2022-07-30T06:52:20;8.27;;;5.87;;
12792;SDS011;6460;42.684;23.260;2022-07-30T06:54:47;6.97;;;6.27;;
12792;SDS011;6460;42.684;23.260;2022-07-30T06:57:15;8.73;;;6.80;;
12792;SDS011;6460;42.684;23.260;2022-07-30T06:59:42;7.63;;;6.90;;
12792;SDS011;6460;42.684;23.260;2022-07-30T07:02:11;8.23;;;6.40;;
12792;SDS011;6460;42.684;23.260;2022-07-30T07:04:39;11.23;;;6.40;;
12792;SDS011;6460;42.684;23.260;2022-07-30T07:07:07;8.40;;;6.33;;
12792;SDS011;6460;42.684;23.260;2022-07-30T07:09:34;7.33;;;6.63;;
12792;SDS011;6460;42.684;23.260;2022-07-30T07:12:01;8.33;;;6.30;;
12792;SDS011;6460;42.684;23.260;2022-07-30T07:14:28;7.93;;;5.90;;
12792;SDS011;6460;42.684;23.260;2022-07-30T07:16:56;6.77;;;6.17;;
12792;SDS011;6460;42.684;23.260;2022-07-30T07:19:24;8.50;;;6.20;;
12792;SDS011;6460;42.684;23.260;2022-07-30T07:21:52;10.40;;;6.13;;
12792;SDS011;6460;42.684;23.260;2022-07-30T07:24:19;8.23;;;6.40;;
12792;SDS011;6460;42.684;23.260;2022-07-30T07:26:46;7.93;;;6.40;;
12792;SDS011;6460;42.684;23.260;2022-07-30T07:29:13;6.47;;;5.93;;
12792;SDS011;6460;42.684;23.260;2022-07-30T07:31:40;8.53;;;6.80;;
12792;SDS011;6460;42.684;23.260;2022-07-30T07:34:08;7.13;;;6.27;;
12792;SDS011;6460;42.684;23.260;2022-07-30T07:36:36;10.23;;;7.20;;
12792;SDS011;6460;42.684;23.260;2022-07-30T07:39:04;8.10;;;6.47;;
12792;SDS011;6460;42.684;23.260;2022-07-30T07:41:34;8.80;;;5.93;;
12792;SDS011;6460;42.684;23.260;2022-07-30T07:44:02;8.43;;;6.43;;
12792;SDS011;6460;42.684;23.260;2022-07-30T07:46:30;7.03;;;6.33;;
12792;SDS011;6460;42.684;23.260;2022-07-30T07:48:57;8.13;;;6.17;;
12792;SDS011;6460;42.684;23.260;2022-07-30T07:51:25;8.10;;;6.60;;
12792;SDS011;6460;42.684;23.260;2022-07-30T07:53:53;7.27;;;6.53;;
12792;SDS011;6460;42.684;23.260;2022-07-30T07:56:21;11.63;;;7.33;;
12792;SDS011;6460;42.684;23.260;2022-07-30T07:58:48;10.03;;;6.50;;
12792;SDS011;6460;42.684;23.260;2022-07-30T08:01:18;7.87;;;7.07;;
12792;SDS011;6460;42.684;23.260;2022-07-30T08:03:46;6.73;;;6.13;;
12792;SDS011;6460;42.684;23.260;2022-07-30T08:06:13;11.30;;;6.80;;
12792;SDS011;6460;42.684;23.260;2022-07-30T08:08:40;9.10;;;7.07;;
12792;SDS011;6460;42.684;23.260;2022-07-30T08:11:09;6.93;;;6.23;;
12792;SDS011;6460;42.684;23.260;2022-07-30T08:13:36;8.67;;;7.43;;
12792;SDS011;6460;42.684;23.260;2022-07-30T08:16:03;7.40;;;6.80;;
12792;SDS011;6460;42.684;23.260;2022-07-30T08:18:32;7.53;;;6.30;;
12792;SDS011;6460;42.684;23.260;2022-07-30T08:21:01;8.87;;;7.17;;
12792;SDS011;6460;42.684;23.260;2022-07-30T08:23:28;7.83;;;6.10;;
12792;SDS011;6460;42.684;23.260;2022-07-30T08:25:55;7.23;;;6.40;;
12792;SDS011;6460;42.684;23.260;2022-07-30T08:28:24;7.87;;;7.20;;
12792;SDS011;6460;42.684;23.260;2022-07-30T08:30:52;8.33;;;7.53;;
12792;SDS011;6460;42.684;23.260;2022-07-30T08:33:19;7.20;;;6.50;;
12792;SDS011;6460;42.684;23.260;2022-07-30T08:36:05;7.47;;;6.77;;
12792;SDS011;6460;42.684;23.260;2022-07-30T08:38:33;7.70;;;6.80;;
12792;SDS011;6460;42.684;23.260;2022-07-30T08:41:00;7.33;;;6.43;;
12792;SDS011;6460;42.684;23.260;2022-07-30T08:43:29;7.60;;;6.90;;
12792;SDS011;6460;42.684;23.260;2022-07-30T08:45:56;6.90;;;6.40;;
12792;SDS011;6460;42.684;23.260;2022-07-30T08:48:26;7.10;;;6.40;;
12792;SDS011;6460;42.684;23.260;2022-07-30T08:50:54;7.33;;;6.40;;
12792;SDS011;6460;42.684;23.260;2022-07-30T08:53:22;7.13;;;6.30;;
12792;SDS011;6460;42.684;23.260;2022-07-30T08:55:51;6.93;;;6.23;;
12792;SDS011;6460;42.684;23.260;2022-07-30T08:58:21;7.27;;;6.57;;
12792;SDS011;6460;42.684;23.260;2022-07-30T09:00:55;6.67;;;6.10;;
12792;SDS011;6460;42.684;23.260;2022-07-30T09:03:23;6.70;;;6.10;;
12792;SDS011;6460;42.684;23.260;2022-07-30T09:05:50;7.10;;;6.50;;
12792;SDS011;6460;42.684;23.260;2022-07-30T09:08:17;6.80;;;6.13;;
12792;SDS011;6460;42.684;23.260;2022-07-30T09:10:45;7.67;;;7.00;;
12792;SDS011;6460;42.684;23.260;2022-07-30T09:13:23;7.57;;;6.70;;
12792;SDS011;6460;42.684;23.260;2022-07-30T09:15:52;6.93;;;6.33;;
12792;SDS011;6460;42.684;23.260;2022-07-30T09:18:30;7.63;;;6.80;;
12792;SDS011;6460;42.684;23.260;2022-07-30T09:20:59;7.90;;;6.47;;
12792;SDS011;6460;42.684;23.260;2022-07-30T09:23:27;7.50;;;6.80;;
12792;SDS011;6460;42.684;23.260;2022-07-30T09:25:54;7.70;;;6.20;;
12792;SDS011;6460;42.684;23.260;2022-07-30T09:28:28;6.97;;;6.23;;
12792;SDS011;6460;42.684;23.260;2022-07-30T09:30:58;7.50;;;6.33;;
12792;SDS011;6460;42.684;23.260;2022-07-30T09:33:33;7.40;;;6.13;;
12792;SDS011;6460;42.684;23.260;2022-07-30T09:36:02;6.83;;;6.10;;
12792;SDS011;6460;42.684;23.260;2022-07-30T09:38:41;6.90;;;6.30;;
12792;SDS011;6460;42.684;23.260;2022-07-30T09:41:12;7.60;;;6.90;;
12792;SDS011;6460;42.684;23.260;2022-07-30T09:43:43;6.97;;;6.37;;
12792;SDS011;6460;42.684;23.260;2022-07-30T09:46:14;7.27;;;6.57;;
12792;SDS011;6460;42.684;23.260;2022-07-30T09:48:42;11.13;;;6.33;;
12792;SDS011;6460;42.684;23.260;2022-07-30T09:51:11;7.23;;;6.57;;
12792;SDS011;6460;42.684;23.260;2022-07-30T09:53:52;7.37;;;6.70;;
12792;SDS011;6460;42.684;23.260;2022-07-30T09:56:24;6.83;;;6.20;;
12792;SDS011;6460;42.684;23.260;2022-07-30T09:58:52;8.40;;;6.40;;
12792;SDS011;6460;42.684;23.260;2022-07-30T10:01:21;6.87;;;6.27;;
12792;SDS011;6460;42.684;23.260;2022-07-30T10:03:48;6.13;;;5.63;;
12792;SDS011;6460;42.684;23.260;2022-07-30T10:06:15;7.00;;;6.40;;
12792;SDS011;6460;42.684;23.260;2022-07-30T10:08:43;7.47;;;6.33;;
12792;SDS011;6460;42.684;23.260;2022-07-30T10:11:12;7.33;;;6.27;;
12792;SDS011;6460;42.684;23.260;2022-07-30T10:13:41;7.03;;;6.47;;
12792;SDS011;6460;42.684;23.260;2022-07-30T10:16:09;7.30;;;6.63;;
12792;SDS011;6460;42.684;23.260;2022-07-30T10:18:39;10.77;;;7.23;;
12792;SDS011;6460;42.684;23.260;2022-07-30T10:21:07;8.97;;;7.30;;
12792;SDS011;6460;42.684;23.260;2022-07-30T10:23:35;7.27;;;6.77;;
12792;SDS011;6460;42.684;23.260;2022-07-30T10:26:03;7.40;;;6.80;;
12792;SDS011;6460;42.684;23.260;2022-07-30T10:28:30;8.20;;;7.43;;
12792;SDS011;6460;42.684;23.260;2022-07-30T10:30:57;8.47;;;7.67;;
12792;SDS011;6460;42.684;23.260;2022-07-30T10:33:25;8.40;;;7.60;;
12792;SDS011;6460;42.684;23.260;2022-07-30T10:35:56;8.07;;;7.40;;
12792;SDS011;6460;42.684;23.260;2022-07-30T10:38:26;7.33;;;6.80;;
12792;SDS011;6460;42.684;23.260;2022-07-30T10:40:57;7.50;;;6.90;;
12792;SDS011;6460;42.684;23.260;2022-07-30T10:43:38;8.23;;;7.53;;
12792;SDS011;6460;42.684;23.260;2022-07-30T10:46:24;8.80;;;8.03;;
12792;SDS011;6460;42.684;23.260;2022-07-30T10:49:07;8.50;;;7.70;;
12792;SDS011;6460;42.684;23.260;2022-07-30T10:51:43;8.90;;;7.93;;
12792;SDS011;6460;42.684;23.260;2022-07-30T10:57:04;8.33;;;7.63;;
12792;SDS011;6460;42.684;23.260;2022-07-30T11:02:35;8.37;;;7.67;;
12792;SDS011;6460;42.684;23.260;2022-07-30T11:05:21;8.37;;;7.77;;
12792;SDS011;6460;42.684;23.260;2022-07-30T11:07:51;8.20;;;7.37;;
12792;SDS011;6460;42.684;23.260;2022-07-30T11:13:07;8.20;;;7.60;;
12792;SDS011;6460;42.684;23.260;2022-07-30T11:18:26;8.13;;;7.53;;
12792;SDS011;6460;42.684;23.260;2022-07-30T11:21:15;8.27;;;7.67;;
12792;SDS011;6460;42.684;23.260;2022-07-30T11:23:45;8.50;;;7.90;;
12792;SDS011;6460;42.684;23.260;2022-07-30T11:29:31;10.07;;;8.00;;
12792;SDS011;6460;42.684;23.260;2022-07-30T11:37:58;8.30;;;7.50;;
12792;SDS011;6460;42.684;23.260;2022-07-30T11:40:33;8.38;;;7.55;;
12792;SDS011;6460;42.684;23.260;2022-07-30T11:43:14;8.50;;;7.47;;
12792;SDS011;6460;42.684;23.260;2022-07-30T11:45:47;9.02;;;8.23;;
12792;SDS011;6460;42.684;23.260;2022-07-30T11:48:16;8.48;;;7.78;;
12792;SDS011;6460;42.684;23.260;2022-07-30T11:50:44;9.18;;;8.27;;
12792;SDS011;6460;42.684;23.260;2022-07-30T11:53:13;10.15;;;8.60;;
12792;SDS011;6460;42.684;23.260;2022-07-30T11:55:45;8.25;;;7.65;;
12792;SDS011;6460;42.684;23.260;2022-07-30T11:58:24;8.60;;;7.88;;
12792;SDS011;6460;42.684;23.260;2022-07-30T12:00:53;9.07;;;8.27;;
12792;SDS011;6460;42.684;23.260;2022-07-30T12:03:22;9.48;;;8.45;;
12792;SDS011;6460;42.684;23.260;2022-07-30T12:05:50;8.75;;;8.05;;
12792;SDS011;6460;42.684;23.260;2022-07-30T12:08:18;8.05;;;7.45;;
12792;SDS011;6460;42.684;23.260;2022-07-30T12:10:59;8.13;;;7.47;;
12792;SDS011;6460;42.684;23.260;2022-07-30T12:13:29;9.75;;;7.85;;
12792;SDS011;6460;42.684;23.260;2022-07-30T12:15:57;8.60;;;7.93;;
12792;SDS011;6460;42.684;23.260;2022-07-30T12:18:24;8.57;;;7.80;;
12792;SDS011;6460;42.684;23.260;2022-07-30T12:20:54;8.40;;;7.70;;
12792;SDS011;6460;42.684;23.260;2022-07-30T12:23:23;9.30;;;8.52;;
12792;SDS011;6460;42.684;23.260;2022-07-30T12:25:51;8.70;;;7.90;;
12792;SDS011;6460;42.684;23.260;2022-07-30T12:28:20;9.30;;;8.32;;
12792;SDS011;6460;42.684;23.260;2022-07-30T12:30:48;9.15;;;8.43;;
12792;SDS011;6460;42.684;23.260;2022-07-30T12:33:16;9.10;;;8.27;;
12792;SDS011;6460;42.684;23.260;2022-07-30T12:35:45;10.20;;;8.55;;
12792;SDS011;6460;42.684;23.260;2022-07-30T12:38:13;9.40;;;8.45;;
12792;SDS011;6460;42.684;23.260;2022-07-30T12:40:51;9.00;;;8.20;;
12792;SDS011;6460;42.684;23.260;2022-07-30T12:46:12;9.88;;;8.55;;
12792;SDS011;6460;42.684;23.260;2022-07-30T12:48:50;12.50;;;9.35;;
12792;SDS011;6460;42.684;23.260;2022-07-30T12:51:18;9.85;;;8.95;;
12792;SDS011;6460;42.684;23.260;2022-07-30T12:53:46;9.10;;;8.40;;
12792;SDS011;6460;42.684;23.260;2022-07-30T12:56:14;8.90;;;8.10;;
12792;SDS011;6460;42.684;23.260;2022-07-30T12:58:44;9.05;;;8.27;;
12792;SDS011;6460;42.684;23.260;2022-07-30T13:01:11;9.35;;;8.65;;
12792;SDS011;6460;42.684;23.260;2022-07-30T13:03:39;9.20;;;8.48;;
12792;SDS011;6460;42.684;23.260;2022-07-30T13:06:10;10.27;;;9.15;;
12792;SDS011;6460;42.684;23.260;2022-07-30T13:08:52;10.63;;;9.63;;
12792;SDS011;6460;42.684;23.260;2022-07-30T13:11:21;9.40;;;8.60;;
12792;SDS011;6460;42.684;23.260;2022-07-30T13:13:50;9.73;;;9.00;;
12792;SDS011;6460;42.684;23.260;2022-07-30T13:16:19;9.25;;;8.50;;
12792;SDS011;6460;42.684;23.260;2022-07-30T13:18:46;10.35;;;9.45;;
12792;SDS011;6460;42.684;23.260;2022-07-30T13:21:13;9.60;;;8.88;;
12792;SDS011;6460;42.684;23.260;2022-07-30T13:23:41;9.73;;;8.80;;
12792;SDS011;6460;42.684;23.260;2022-07-30T13:26:08;10.50;;;9.50;;
12792;SDS011;6460;42.684;23.260;2022-07-30T13:28:36;10.07;;;9.27;;
12792;SDS011;6460;42.684;23.260;2022-07-30T13:31:05;9.55;;;8.68;;
12792;SDS011;6460;42.684;23.260;2022-07-30T13:33:33;10.05;;;9.35;;
12792;SDS011;6460;42.684;23.260;2022-07-30T13:36:01;10.10;;;9.18;;
12792;SDS011;6460;42.684;23.260;2022-07-30T13:38:28;10.18;;;9.30;;
12792;SDS011;6460;42.684;23.260;2022-07-30T13:40:56;10.23;;;9.52;;
12792;SDS011;6460;42.684;23.260;2022-07-30T13:43:23;10.70;;;9.90;;
12792;SDS011;6460;42.684;23.260;2022-07-30T13:45:50;10.80;;;9.90;;
12792;SDS011;6460;42.684;23.260;2022-07-30T13:48:19;10.57;;;9.68;;
12792;SDS011;6460;42.684;23.260;2022-07-30T13:50:47;10.50;;;9.60;;
12792;SDS011;6460;42.684;23.260;2022-07-30T13:53:14;10.63;;;9.77;;
12792;SDS011;6460;42.684;23.260;2022-07-30T13:55:41;9.80;;;8.97;;
12792;SDS011;6460;42.684;23.260;2022-07-30T13:58:10;9.33;;;8.63;;
12792;SDS011;6460;42.684;23.260;2022-07-30T14:00:38;9.90;;;9.17;;
12792;SDS011;6460;42.684;23.260;2022-07-30T14:03:09;9.83;;;8.93;;
12792;SDS011;6460;42.684;23.260;2022-07-30T14:05:38;10.90;;;9.13;;
12792;SDS011;6460;42.684;23.260;2022-07-30T14:08:06;10.43;;;9.53;;
12792;SDS011;6460;42.684;23.260;2022-07-30T14:10:34;9.40;;;8.60;;
12792;SDS011;6460;42.684;23.260;2022-07-30T14:13:03;10.77;;;9.77;;
12792;SDS011;6460;42.684;23.260;2022-07-30T14:15:32;9.37;;;8.67;;
12792;SDS011;6460;42.684;23.260;2022-07-30T14:18:00;9.13;;;8.43;;
12792;SDS011;6460;42.684;23.260;2022-07-30T14:20:27;9.60;;;8.77;;
12792;SDS011;6460;42.684;23.260;2022-07-30T14:22:56;10.10;;;9.25;;
12792;SDS011;6460;42.684;23.260;2022-07-30T14:25:23;9.57;;;8.73;;
12792;SDS011;6460;42.684;23.260;2022-07-30T14:27:50;9.27;;;8.57;;
12792;SDS011;6460;42.684;23.260;2022-07-30T14:30:17;9.83;;;8.90;;
12792;SDS011;6460;42.684;23.260;2022-07-30T14:32:45;9.83;;;8.93;;
12792;SDS011;6460;42.684;23.260;2022-07-30T14:35:12;9.03;;;8.37;;
12792;SDS011;6460;42.684;23.260;2022-07-30T14:37:39;9.30;;;8.53;;
12792;SDS011;6460;42.684;23.260;2022-07-30T14:40:09;9.43;;;8.73;;
12792;SDS011;6460;42.684;23.260;2022-07-30T14:42:37;9.57;;;8.77;;
12792;SDS011;6460;42.684;23.260;2022-07-30T14:45:06;9.50;;;8.27;;
12792;SDS011;6460;42.684;23.260;2022-07-30T14:47:34;9.27;;;8.57;;
12792;SDS011;6460;42.684;23.260;2022-07-30T14:50:02;8.90;;;7.87;;
12792;SDS011;6460;42.684;23.260;2022-07-30T14:52:29;9.37;;;8.30;;
12792;SDS011;6460;42.684;23.260;2022-07-30T14:54:59;10.00;;;8.73;;
12792;SDS011;6460;42.684;23.260;2022-07-30T14:57:28;10.33;;;9.40;;
12792;SDS011;6460;42.684;23.260;2022-07-30T14:59:55;10.43;;;9.57;;
12792;SDS011;6460;42.684;23.260;2022-07-30T15:02:22;10.90;;;10.03;;
12792;SDS011;6460;42.684;23.260;2022-07-30T15:04:49;10.43;;;9.57;;
12792;SDS011;6460;42.684;23.260;2022-07-30T15:07:17;9.57;;;8.87;;
12792;SDS011;6460;42.684;23.260;2022-07-30T15:09:44;10.80;;;9.90;;
12792;SDS011;6460;42.684;23.260;2022-07-30T15:12:11;10.97;;;9.97;;
12792;SDS011;6460;42.684;23.260;2022-07-30T15:14:42;10.73;;;9.80;;
12792;SDS011;6460;42.684;23.260;2022-07-30T15:17:10;10.53;;;9.63;;
12792;SDS011;6460;42.684;23.260;2022-07-30T15:19:37;10.60;;;9.60;;